Current Conditions
Data
Offline




Pressure
29.89 (inHG) - 1012.22 (mb)
Visibility

9.9 (mimiles) - 16.0 (km)
   Temperature
46  °F
8°C
45  °F
Dewpoint
93  %
 Humidity
   Wind Speed
16  mph
14  kts
26  km/h
7.2  m/s
   Wind Direction
 30°
North North
East
   Airport Data
KBUU
Location Burlington Municipal Airport 6 mi (9.65 km)
Metar :KBUU 251535Z AUTO 03014G21KT 10SM 09/07 A2989 RMK AO2 T00850073 PWINO
Mon 25th October 09:35 am
   Raw Metar Info
Raw METAR is the most common format in the world for the transmission of observational weather data. It is highly standardized through the International Civil Aviation Organization (ICAO), which allows it to be understood throughout most of the world.
   API Info
Data Provided by
https://www.checkwx.com/weather/KBUU
   © Info
CSS/SVG/PHP scripts were developed by weather34.com for use in the weather34 template © 2015-2021

Guide Info provided by Metar-Wikipedia